createdAt,value
2023-12-22T00:23:19.332Z,4
2023-12-22T00:52:12.118Z,4
2023-12-22T01:21:03.563Z,3
2023-12-22T01:49:55.341Z,4
2023-12-22T02:18:50.270Z,4
2023-12-22T02:47:33.238Z,6
2023-12-22T03:16:24.911Z,6
2023-12-22T03:45:16.445Z,4
2023-12-22T04:14:09.880Z,6
2023-12-22T04:43:07.479Z,6
2023-12-22T05:11:45.384Z,6
2023-12-22T05:40:35.471Z,7
2023-12-22T06:09:26.597Z,6
2023-12-22T06:38:12.190Z,10
2023-12-22T07:07:00.582Z,9
2023-12-22T07:35:36.075Z,7
2023-12-22T08:04:06.091Z,7
2023-12-22T08:32:27.653Z,10
2023-12-22T09:00:46.043Z,11
2023-12-22T09:29:17.110Z,13
2023-12-22T09:57:50.283Z,11
2023-12-22T10:26:16.006Z,9
2023-12-22T10:54:45.819Z,7
2023-12-22T11:23:16.358Z,11
2023-12-22T11:51:53.356Z,7
2023-12-22T12:20:34.226Z,6
2023-12-22T12:48:57.189Z,4
2023-12-22T13:17:37.569Z,4
2023-12-22T13:45:56.550Z,3
2023-12-22T14:14:39.745Z,7
2023-12-22T14:43:23.547Z,6
2023-12-22T15:12:05.208Z,4
2023-12-22T15:40:36.781Z,3
2023-12-22T16:09:00.146Z,3
2023-12-22T16:37:39.979Z,4
2023-12-22T17:06:01.763Z,3
2023-12-22T17:34:27.355Z,10
2023-12-22T18:03:11.756Z,3
2023-12-22T18:31:56.153Z,3
2023-12-22T19:00:25.923Z,4
2023-12-22T19:29:00.422Z,3
2023-12-22T19:57:39.478Z,3
2023-12-22T20:26:10.251Z,5
2023-12-22T20:54:50.058Z,5
2023-12-22T21:23:21.490Z,4
2023-12-22T21:51:50.546Z,4
2023-12-22T22:20:16.247Z,3
2023-12-22T22:48:37.421Z,3
2023-12-22T23:17:21.353Z,3
2023-12-22T23:45:56.989Z,3
